Time,TemperatureF,DewpointF,PressureIn,WindDirection,WindDirectionDegrees,WindSpeedMPH,WindSpeedGustMPH,Humidity,HourlyPrecipIn,Conditions,Clouds,dailyrainin,SoftwareType,DateUTC
2013-04-19 00:03:00,28.0,17.0,29.86,NNE,30,7.0,21.0,64,0.00,,,0.11,,2013-04-19 05:03:00,
2013-04-19 00:11:00,28.0,17.0,29.86,NNE,30,7.0,21.0,64,0.00,,,0.11,,2013-04-19 05:11:00,
2013-04-19 00:22:00,27.0,16.0,29.85,SW,216,7.0,17.0,64,0.00,,,0.11,,2013-04-19 05:22:00,
2013-04-19 00:32:00,27.0,16.0,29.85,WNW,290,8.0,22.0,63,0.00,,,0.11,,2013-04-19 05:32:00,
2013-04-19 00:42:00,27.0,16.0,29.85,WNW,290,8.0,22.0,63,0.00,,,0.11,,2013-04-19 05:42:00,
2013-04-19 00:52:00,27.0,16.0,29.85,West,262,7.0,18.0,63,0.00,,,0.11,,2013-04-19 05:52:00,
2013-04-19 01:02:00,27.0,16.0,29.85,WNW,294,6.0,15.0,62,0.00,,,0.11,,2013-04-19 06:02:00,
2013-04-19 01:11:00,27.0,16.0,29.85,WNW,294,6.0,15.0,62,0.00,,,0.11,,2013-04-19 06:11:00,
2013-04-19 01:22:00,27.0,16.0,29.84,NW,312,8.0,16.0,62,0.00,,,0.11,,2013-04-19 06:22:00,
2013-04-19 01:32:00,27.0,16.0,29.84,NNW,342,7.0,17.0,62,0.00,,,0.11,,2013-04-19 06:32:00,
2013-04-19 01:42:00,27.0,16.0,29.84,NNW,342,7.0,17.0,62,0.00,,,0.11,,2013-04-19 06:42:00,
2013-04-19 01:52:00,27.0,16.0,29.84,NW,323,6.0,18.0,62,0.00,,,0.11,,2013-04-19 06:52:00,
2013-04-19 02:02:00,27.0,16.0,29.83,WSW,244,7.0,22.0,62,0.00,,,0.11,,2013-04-19 07:02:00,
2013-04-19 02:12:00,27.0,16.0,29.83,WSW,244,7.0,22.0,62,0.00,,,0.11,,2013-04-19 07:12:00,
2013-04-19 02:21:00,26.0,15.0,29.83,NW,308,8.0,18.0,62,0.00,,,0.11,,2013-04-19 07:21:00,
2013-04-19 02:32:00,26.0,15.0,29.83,NW,309,6.0,20.0,62,0.00,,,0.11,,2013-04-19 07:32:00,
2013-04-19 02:42:00,26.0,15.0,29.83,NW,309,6.0,20.0,62,0.00,,,0.11,,2013-04-19 07:42:00,
2013-04-19 02:52:00,26.0,15.0,29.82,ESE,116,7.0,18.0,62,0.00,,,0.11,,2013-04-19 07:52:00,
2013-04-19 03:02:00,26.0,14.0,29.83,West,277,8.0,16.0,61,0.00,,,0.11,,2013-04-19 08:02:00,
2013-04-19 03:12:00,26.0,14.0,29.83,West,277,8.0,16.0,61,0.00,,,0.11,,2013-04-19 08:12:00,
2013-04-19 03:21:00,26.0,14.0,29.82,WNW,287,6.0,17.0,61,0.00,,,0.11,,2013-04-19 08:21:00,
2013-04-19 03:32:00,26.0,15.0,29.81,WNW,293,7.0,16.0,63,0.00,,,0.11,,2013-04-19 08:32:00,
2013-04-19 03:42:00,26.0,15.0,29.81,WNW,293,7.0,16.0,63,0.00,,,0.11,,2013-04-19 08:42:00,
2013-04-19 03:52:00,26.0,15.0,29.81,WNW,288,6.0,20.0,62,0.00,,,0.11,,2013-04-19 08:52:00,
2013-04-19 04:01:00,25.0,14.0,29.82,WNW,298,7.0,17.0,62,0.00,,,0.11,,2013-04-19 09:01:00,
2013-04-19 04:11:00,25.0,14.0,29.82,WNW,298,7.0,17.0,62,0.00,,,0.11,,2013-04-19 09:11:00,
2013-04-19 04:21:00,25.0,14.0,29.81,NNW,340,8.0,14.0,62,0.00,,,0.11,,2013-04-19 09:21:00,
2013-04-19 04:32:00,25.0,14.0,29.81,WNW,286,7.0,14.0,62,0.00,,,0.11,,2013-04-19 09:32:00,
2013-04-19 04:42:00,25.0,14.0,29.81,WNW,286,7.0,14.0,62,0.00,,,0.11,,2013-04-19 09:42:00,
2013-04-19 04:52:00,25.0,14.0,29.81,West,281,6.0,16.0,62,0.00,,,0.11,,2013-04-19 09:52:00,
2013-04-19 05:02:00,25.0,14.0,29.82,West,265,7.0,17.0,62,0.00,,,0.11,,2013-04-19 10:02:00,
2013-04-19 05:13:00,26.0,15.0,29.82,West,274,5.0,14.0,62,0.00,,,0.11,,2013-04-19 10:13:00,
2013-04-19 05:23:00,26.0,15.0,29.82,West,274,5.0,14.0,62,0.00,,,0.11,,2013-04-19 10:23:00,
2013-04-19 05:33:00,25.0,14.0,29.82,WNW,290,5.0,15.0,62,0.00,,,0.11,,2013-04-19 10:33:00,
2013-04-19 05:42:00,25.0,14.0,29.82,WNW,290,5.0,15.0,62,0.00,,,0.11,,2013-04-19 10:42:00,
2013-04-19 05:52:00,25.0,14.0,29.82,West,269,6.0,16.0,62,0.00,,,0.11,,2013-04-19 10:52:00,
2013-04-19 06:02:00,25.0,14.0,29.83,WNW,286,7.0,15.0,62,0.00,,,0.11,,2013-04-19 11:02:00,
2013-04-19 06:11:00,25.0,14.0,29.83,WNW,286,7.0,15.0,62,0.00,,,0.11,,2013-04-19 11:11:00,
2013-04-19 06:22:00,25.0,14.0,29.83,NW,316,7.0,15.0,62,0.00,,,0.11,,2013-04-19 11:22:00,
2013-04-19 06:32:00,25.0,14.0,29.83,West,263,5.0,14.0,62,0.00,,,0.11,,2013-04-19 11:32:00,
2013-04-19 06:42:00,25.0,14.0,29.83,West,263,5.0,14.0,62,0.00,,,0.11,,2013-04-19 11:42:00,
2013-04-19 06:52:00,25.0,14.0,29.83,NW,309,5.0,15.0,62,0.00,,,0.11,,2013-04-19 11:52:00,
2013-04-19 07:03:00,24.0,13.0,29.84,WNW,292,5.0,15.0,63,0.00,,,0.11,,2013-04-19 12:03:00,
2013-04-19 07:12:00,24.0,13.0,29.84,WNW,292,5.0,15.0,63,0.00,,,0.11,,2013-04-19 12:12:00,
2013-04-19 07:22:00,24.0,13.0,29.84,North,355,6.0,14.0,63,0.00,,,0.11,,2013-04-19 12:22:00,
2013-04-19 07:32:00,25.0,14.0,29.85,NW,306,6.0,15.0,62,0.00,,,0.11,,2013-04-19 12:32:00,
2013-04-19 07:42:00,25.0,14.0,29.85,NW,306,6.0,15.0,62,0.00,,,0.11,,2013-04-19 12:42:00,
2013-04-19 07:52:00,25.0,13.0,29.85,WNW,288,6.0,13.0,61,0.00,,,0.11,,2013-04-19 12:52:00,
2013-04-19 08:01:00,25.0,13.0,29.86,NW,310,4.0,17.0,61,0.00,,,0.11,,2013-04-19 13:01:00,
2013-04-19 08:11:00,25.0,13.0,29.86,NW,310,4.0,17.0,61,0.00,,,0.11,,2013-04-19 13:11:00,
2013-04-19 08:21:00,25.0,13.0,29.86,WSW,253,7.0,13.0,60,0.00,,,0.11,,2013-04-19 13:21:00,
2013-04-19 08:32:00,26.0,14.0,29.87,West,281,6.0,14.0,59,0.00,,,0.11,,2013-04-19 13:32:00,
2013-04-19 08:42:00,26.0,14.0,29.87,West,281,6.0,14.0,59,0.00,,,0.11,,2013-04-19 13:42:00,
2013-04-19 08:52:00,27.0,14.0,29.87,West,259,4.0,15.0,58,0.00,,,0.11,,2013-04-19 13:52:00,
2013-04-19 09:02:00,27.0,14.0,29.87,WNW,286,5.0,15.0,58,0.00,,,0.11,,2013-04-19 14:02:00,
2013-04-19 09:11:00,27.0,14.0,29.87,WNW,286,5.0,15.0,58,0.00,,,0.11,,2013-04-19 14:11:00,
2013-04-19 09:22:00,27.0,14.0,29.87,West,273,6.0,15.0,58,0.00,,,0.11,,2013-04-19 14:22:00,
2013-04-19 09:32:00,27.0,15.0,29.87,WNW,293,5.0,15.0,59,0.00,,,0.11,,2013-04-19 14:32:00,
2013-04-19 09:42:00,27.0,15.0,29.87,WNW,293,5.0,15.0,59,0.00,,,0.11,,2013-04-19 14:42:00,
2013-04-19 09:52:00,28.0,15.0,29.88,NW,308,7.0,18.0,58,0.00,,,0.11,,2013-04-19 14:52:00,
2013-04-19 10:01:00,28.0,15.0,29.88,NW,318,5.0,15.0,58,0.00,,,0.11,,2013-04-19 15:01:00,
2013-04-19 10:12:00,28.0,15.0,29.88,NW,318,5.0,15.0,58,0.00,,,0.11,,2013-04-19 15:12:00,
2013-04-19 10:21:00,28.0,16.0,29.88,NW,319,6.0,14.0,59,0.00,,,0.11,,2013-04-19 15:21:00,
2013-04-19 10:33:00,29.0,16.0,29.89,NW,315,7.0,16.0,58,0.00,,,0.11,,2013-04-19 15:33:00,
2013-04-19 10:43:00,29.0,16.0,29.89,NW,315,7.0,16.0,58,0.00,,,0.11,,2013-04-19 15:43:00,
2013-04-19 10:52:00,29.0,16.0,29.89,West,259,7.0,16.0,58,0.00,,,0.10,,2013-04-19 15:52:00,
2013-04-19 11:03:00,28.0,16.0,29.90,WNW,293,5.0,15.0,59,0.00,,,0.10,,2013-04-19 16:03:00,
2013-04-19 11:13:00,28.0,16.0,29.90,WNW,293,5.0,15.0,59,0.00,,,0.10,,2013-04-19 16:13:00,
2013-04-19 11:23:00,29.0,16.0,29.90,WNW,284,5.0,16.0,58,0.00,,,0.10,,2013-04-19 16:23:00,
2013-04-19 11:32:00,30.0,17.0,29.91,SSE,156,6.0,17.0,57,0.00,,,0.10,,2013-04-19 16:32:00,
2013-04-19 11:42:00,30.0,17.0,29.91,SSE,156,6.0,17.0,57,0.00,,,0.10,,2013-04-19 16:42:00,
2013-04-19 11:52:00,30.0,17.0,29.91,WNW,286,5.0,16.0,57,0.00,,,0.10,,2013-04-19 16:52:00,
2013-04-19 12:02:00,31.0,17.0,29.92,WNW,285,6.0,16.0,56,0.00,,,0.10,,2013-04-19 17:02:00,
2013-04-19 12:12:00,31.0,17.0,29.92,WNW,285,6.0,16.0,56,0.00,,,0.10,,2013-04-19 17:12:00,
2013-04-19 12:21:00,31.0,18.0,29.92,WNW,284,4.0,15.0,58,0.00,,,0.10,,2013-04-19 17:21:00,
2013-04-19 12:33:00,32.0,19.0,29.93,WNW,299,5.0,14.0,57,0.00,,,0.10,,2013-04-19 17:33:00,
2013-04-19 12:42:00,32.0,19.0,29.93,WNW,299,5.0,14.0,57,0.00,,,0.10,,2013-04-19 17:42:00,
2013-04-19 12:52:00,32.0,18.0,29.93,NNW,331,6.0,15.0,55,0.00,,,0.09,,2013-04-19 17:52:00,
2013-04-19 13:02:00,32.0,15.0,29.93,NNE,22,8.0,25.0,49,0.00,,,0.09,,2013-04-19 18:02:00,
2013-04-19 13:13:00,32.0,15.0,29.93,NNE,22,8.0,25.0,49,0.00,,,0.09,,2013-04-19 18:13:00,
2013-04-19 13:23:00,32.0,17.0,29.94,WNW,296,6.0,16.0,54,0.00,,,0.09,,2013-04-19 18:23:00,
2013-04-19 13:33:00,32.0,17.0,29.94,WNW,298,8.0,18.0,54,0.00,,,0.09,,2013-04-19 18:33:00,
2013-04-19 13:43:00,32.0,17.0,29.94,WNW,298,8.0,18.0,54,0.00,,,0.09,,2013-04-19 18:43:00,
2013-04-19 13:52:00,33.0,21.0,29.95,WSW,250,8.0,22.0,62,0.00,,,0.05,,2013-04-19 18:52:00,
2013-04-19 14:02:00,32.0,20.0,29.95,North,355,7.0,20.0,60,0.00,,,0.05,,2013-04-19 19:02:00,
2013-04-19 14:11:00,32.0,20.0,29.95,North,355,7.0,20.0,60,0.00,,,0.05,,2013-04-19 19:11:00,
2013-04-19 14:21:00,33.0,21.0,29.96,WSW,244,7.0,20.0,61,0.00,,,0.05,,2013-04-19 19:21:00,
2013-04-19 14:32:00,33.0,22.0,29.96,NNW,337,7.0,19.0,63,0.00,,,0.05,,2013-04-19 19:32:00,
2013-04-19 14:42:00,33.0,22.0,29.96,NNW,337,7.0,19.0,63,0.00,,,0.05,,2013-04-19 19:42:00,
2013-04-19 14:52:00,33.0,22.0,29.97,NNW,337,7.0,21.0,63,0.00,,,0.03,,2013-04-19 19:52:00,
2013-04-19 15:02:00,33.0,21.0,29.98,North,350,5.0,16.0,62,0.00,,,0.03,,2013-04-19 20:02:00,
2013-04-19 15:11:00,33.0,21.0,29.98,North,350,5.0,16.0,62,0.00,,,0.03,,2013-04-19 20:11:00,
2013-04-19 15:22:00,32.0,20.0,29.98,NNW,341,11.0,20.0,62,0.00,,,0.03,,2013-04-19 20:22:00,
2013-04-19 15:32:00,33.0,20.0,29.99,SW,221,5.0,17.0,58,0.00,,,0.03,,2013-04-19 20:32:00,
2013-04-19 15:42:00,33.0,21.0,30.00,North,355,5.0,18.0,61,0.00,,,0.02,,2013-04-19 20:42:00,
2013-04-19 15:51:00,33.0,21.0,30.00,North,355,5.0,18.0,61,0.00,,,0.02,,2013-04-19 20:51:00,
2013-04-19 16:01:00,33.0,20.0,30.00,West,279,6.0,16.0,59,0.00,,,0.02,,2013-04-19 21:01:00,
2013-04-19 16:11:00,32.0,20.0,30.00,NNE,32,6.0,21.0,61,0.00,,,0.02,,2013-04-19 21:11:00,
2013-04-19 16:21:00,32.0,20.0,30.00,NNE,32,6.0,21.0,61,0.00,,,0.02,,2013-04-19 21:21:00,
2013-04-19 16:32:00,33.0,19.0,30.01,NW,317,6.0,14.0,57,0.00,,,0.02,,2013-04-19 21:32:00,
2013-04-19 16:42:00,33.0,19.0,30.01,NW,317,6.0,14.0,57,0.00,,,0.02,,2013-04-19 21:42:00,
2013-04-19 16:52:00,33.0,20.0,30.01,NW,317,5.0,13.0,58,0.00,,,0.00,,2013-04-19 21:52:00,
2013-04-19 17:02:00,33.0,21.0,30.01,SSW,202,5.0,14.0,60,0.00,,,0.00,,2013-04-19 22:02:00,
2013-04-19 17:12:00,33.0,21.0,30.01,SSW,202,5.0,14.0,60,0.00,,,0.00,,2013-04-19 22:12:00,
2013-04-19 17:22:00,33.0,21.0,30.02,NW,309,6.0,15.0,62,0.00,,,0.00,,2013-04-19 22:22:00,
2013-04-19 17:33:00,33.0,21.0,30.02,NNW,341,5.0,17.0,61,0.00,,,0.00,,2013-04-19 22:33:00,
2013-04-19 17:42:00,33.0,21.0,30.02,NNW,341,5.0,17.0,61,0.00,,,0.00,,2013-04-19 22:42:00,
2013-04-19 17:52:00,34.0,22.0,30.03,West,269,5.0,12.0,62,0.00,,,0.00,,2013-04-19 22:52:00,
2013-04-19 18:03:00,34.0,22.0,30.03,West,267,4.0,14.0,62,0.00,,,0.00,,2013-04-19 23:03:00,
2013-04-19 18:11:00,34.0,22.0,30.03,West,267,4.0,14.0,62,0.00,,,0.00,,2013-04-19 23:11:00,
2013-04-19 18:22:00,33.0,21.0,30.03,NW,319,5.0,17.0,61,0.00,,,0.00,,2013-04-19 23:22:00,
2013-04-19 18:32:00,33.0,21.0,30.04,WSW,245,5.0,17.0,60,0.00,,,0.00,,2013-04-19 23:32:00,
2013-04-19 18:42:00,33.0,21.0,30.04,WSW,245,5.0,17.0,60,0.00,,,0.00,,2013-04-19 23:42:00,
2013-04-19 18:52:00,33.0,19.0,30.04,WNW,294,5.0,12.0,57,0.00,,,0.00,,2013-04-19 23:52:00,
2013-04-19 19:02:00,32.0,19.0,30.05,North,360,4.0,14.0,57,0.00,,,0.00,,2013-04-20 00:02:00,
2013-04-19 19:12:00,32.0,19.0,30.05,North,360,4.0,14.0,57,0.00,,,0.00,,2013-04-20 00:12:00,
2013-04-19 19:21:00,32.0,19.0,30.05,NW,304,5.0,12.0,59,0.00,,,0.00,,2013-04-20 00:21:00,
2013-04-19 19:32:00,32.0,20.0,30.06,NNW,328,3.0,14.0,60,0.00,,,0.00,,2013-04-20 00:32:00,
2013-04-19 19:41:00,32.0,20.0,30.06,NNW,328,3.0,14.0,60,0.00,,,0.00,,2013-04-20 00:41:00,
2013-04-19 19:51:00,31.0,19.0,30.07,WNW,293,4.0,11.0,61,0.00,,,0.00,,2013-04-20 00:51:00,
2013-04-19 20:01:00,30.0,19.0,30.07,NW,323,2.0,12.0,63,0.00,,,0.00,,2013-04-20 01:01:00,
2013-04-19 20:11:00,30.0,19.0,30.07,NW,323,2.0,12.0,63,0.00,,,0.00,,2013-04-20 01:11:00,
2013-04-19 20:21:00,29.0,18.0,30.08,NW,309,3.0,13.0,63,0.00,,,0.00,,2013-04-20 01:21:00,
2013-04-19 20:32:00,28.0,17.0,30.08,WNW,289,5.0,12.0,64,0.00,,,0.00,,2013-04-20 01:32:00,
2013-04-19 20:42:00,28.0,17.0,30.08,WNW,289,5.0,12.0,64,0.00,,,0.00,,2013-04-20 01:42:00,
2013-04-19 20:52:00,28.0,18.0,30.08,North,11,4.0,11.0,65,0.00,,,0.00,,2013-04-20 01:52:00,
2013-04-19 21:01:00,27.0,16.0,30.09,NW,305,3.0,10.0,63,0.00,,,0.00,,2013-04-20 02:01:00,
2013-04-19 21:11:00,27.0,16.0,30.09,NW,305,3.0,10.0,63,0.00,,,0.00,,2013-04-20 02:11:00,
2013-04-19 21:21:00,26.0,12.0,30.10,NW,308,0.0,10.0,55,0.00,,,0.00,,2013-04-20 02:21:00,
2013-04-19 21:32:00,26.0,12.0,30.10,North,355,1.0,5.0,55,0.00,,,0.00,,2013-04-20 02:32:00,
2013-04-19 21:42:00,26.0,12.0,30.10,North,355,1.0,5.0,55,0.00,,,0.00,,2013-04-20 02:42:00,
2013-04-19 21:52:00,26.0,12.0,30.11,West,277,2.0,7.0,55,0.00,,,0.00,,2013-04-20 02:52:00,
2013-04-19 22:01:00,25.0,12.0,30.12,NNW,343,0.0,5.0,56,0.00,,,0.00,,2013-04-20 03:01:00,
2013-04-19 22:11:00,25.0,12.0,30.12,NNW,343,0.0,5.0,56,0.00,,,0.00,,2013-04-20 03:11:00,
2013-04-19 22:21:00,25.0,12.0,30.12,West,276,0.0,5.0,57,0.00,,,0.00,,2013-04-20 03:21:00,
2013-04-19 22:33:00,24.0,12.0,30.13,WNW,298,2.0,6.0,60,0.00,,,0.00,,2013-04-20 03:33:00,
2013-04-19 22:43:00,24.0,12.0,30.13,WNW,298,2.0,6.0,60,0.00,,,0.00,,2013-04-20 03:43:00,
2013-04-19 22:52:00,24.0,12.0,30.13,West,275,0.0,5.0,60,0.00,,,0.00,,2013-04-20 03:52:00,
2013-04-19 23:03:00,23.0,12.0,30.13,West,277,0.0,3.0,61,0.00,,,0.00,,2013-04-20 04:03:00,
2013-04-19 23:12:00,23.0,12.0,30.13,West,277,0.0,3.0,61,0.00,,,0.00,,2013-04-20 04:12:00,
2013-04-19 23:23:00,23.0,13.0,30.13,WNW,292,1.0,4.0,64,0.00,,,0.00,,2013-04-20 04:23:00,
2013-04-19 23:32:00,22.0,11.0,30.13,WNW,292,1.0,3.0,63,0.00,,,0.00,,2013-04-20 04:32:00,
2013-04-19 23:42:00,22.0,11.0,30.13,WNW,292,1.0,3.0,63,0.00,,,0.00,,2013-04-20 04:42:00,
2013-04-19 23:52:00,21.0,11.0,30.14,WNW,292,0.0,4.0,65,0.00,,,0.00,,2013-04-20 04:52:00,